Fort Lee, NJ (07024)

5:11 AM EDT on October 22, 2014 (GMT -0400)
Palisades Park | Change Station
CLOSE
Current Station
Personal Weather Station
Location: Palisades Park, NJ
Elevation: 115 ft
Nearby Weather Stations
Active Advisory: Areal Flood Advisory

Elev 115 ft 40.84 °N, 74.00 °W | Updated 14 minutes ago

Rain
Rain
55.2 °F
Feels Like 55.2 °F
N
1.1
Wind Variable Wind from WNW

Today
High -- | Low -- °F
--% Chance of Precip.
Yesterday
High -- | Low -- °F
Precip. -- in
7:14 AM 6:05 PM
Waning Crescent, 2% visible
Pressure 29.88 in
Visibility 10.0 miles
Clouds Overcast 1500 ft
Dew Point 53 °F
Humidity 92%
Rainfall 0.05 in
Snow Depth Not available.
UV 0 out of 12
Pollen .70 out of 12
Air Quality Not available.
Flu Activity Sporadic
METAR KTEB 220851Z 03005KT 10SM RA OVC015 13/12 A2988 RMK AO2 SLP119 P0004 60004 T01330117 55002

More Conditions Fewer Conditions

Pressure 29.88 in
Visibility 10.0 miles
Clouds Overcast 1500 ft
Dew Point 53 °F
Humidity 92%
Rainfall 0.05 in
Snow Depth Not available.
UV 0 out of 12
Pollen .70 out of 12
Air Quality Not available.
Flu Activity Sporadic
METAR KTEB 220851Z 03005KT 10SM RA OVC015 13/12 A2988 RMK AO2 SLP119 P0004 60004 T01330117 55002

More Conditions Fewer Conditions

10-Day Weather Forecast

Almanac

Astronomy

Oct. 22, 2014 Rise Set
Actual Time 7:14 AM EDT 6:05 PM EDT
Civil Twilight 6:46 AM EDT 6:33 PM EDT
Nautical Twilight 6:14 AM EDT 7:05 PM EDT
Astronomical Twilight 5:43 AM EDT 7:36 PM EDT
Moon 5:53 AM EDT 5:30 PM EDT
Length of Visible Light 11h 46m
Length of Day
10h 50m
Tomorrow will be 2m 32s shorter.
Waning Crescent, 2% of the Moon is Illuminated
Today
Waning Crescent
Oct 23
New
Oct 30
First Quarter
Nov 6
Full
Nov 14
Last Quarter

Today's Extremes

State Highs State Lows

Community

WunderPhotos

Upload Photos

1,763,900 photos uploaded!

Nearby

Snow Depth

Station Depth Elevation
No new snow has been reported.

Earthquake Activity

City Distance Mag. Time & Date
No recent earthquake activity has been reported nearby.
Minimum magnitude displayed is 2.5.

Coastal Water Temperatures

Place Temperature
Kings Point, NY 61.0 °F
Bridgeport, CT 63.0 °F

Nearby Weather Stations